Terminal Aerodrome Forecast
Issued by NWS

Home | Current Version | Previous Version | Text Only | Print | Product List | Glossary On
Versions: 1 2 3 4 5 6 7 8 9 10 11 12 13 14 15 16 17 18 19 20 21 22 23 24 25 26 27 28 29 30 31 32 33 34 35 36
000
FTAK31 PAFA 240812 AAA
TAFASC
TAF AMD
PASC 240812Z 2408/2506 07006KT 1SM BR VV004
      TEMPO 2408/2412 1/4SM FG
     FM241200 07005KT 1 1/2SM -SHSN BR OVC003
     FM242000 08007KT 4SM BR OVC003=

USA.gov is the U.S. government's official web portal to all federal, state and local government web resources and services.